Time;durP1;ratioP1;P1;durP2;ratioP2;P2;SDS_P1;SDS_P2;PMS_P1;PMS_P2;Temp;Humidity;BMP_temperature;BMP_pressure;BME280_temperature;BME280_humidity;BME280_pressure;Samples;Min_cycle;Max_cycle;Signal;HPM_P1;HPM_P2
2023/09/20 05:18:18;;;;;;;;;;;;;;;;;;5099060;28;19973;-46
2023/09/20 05:20:45;;;;;;;;;;;;;;;;;;5104398;28;19919;-44
2023/09/20 05:23:11;;;;;;;;;;;;;;;;;;5092812;28;19912;-43
2023/09/20 05:25:37;;;;;;;;;;;;;;;;;;5102124;28;19907;-44
2023/09/20 05:28:03;;;;;;;;;;;;;;;;;;5095012;28;19995;-46
2023/09/20 05:30:30;;;;;;;;;;;;;;;;;;5092412;28;19908;-44
2023/09/20 05:32:56;;;;;;;;;;;;;;;;;;5092601;28;20539;-43
2023/09/20 05:35:22;;;;;;;;;;;;;;;;;;5091947;28;19935;-44
2023/09/20 05:37:48;;;;;;;;;;;;;;;;;;5091948;28;20366;-43
2023/09/20 05:40:17;;;;;;;;;;;;;;;;;;5105250;28;19916;-46
2023/09/20 05:42:43;;;;;;;;;;;;;;;;;;5083082;28;20364;-45
2023/09/20 05:45:09;;;;;;;;;;;;;;;;;;5111309;28;20002;-46
2023/09/20 05:47:35;;;;;;;;;;;;;;;;;;5103385;28;19912;-45
2023/09/20 05:50:01;;;;;;;;;;;;;;;;;;5092088;28;20006;-44
2023/09/20 05:52:27;;;;;;;;;;;;;;;;;;5092339;28;19907;-45
2023/09/20 05:54:53;;;;;;;;;;;;;;;;;;5092595;28;19922;-48
2023/09/20 05:57:19;;;;;;;;;;;;;;;;;;5092067;28;19980;-47
2023/09/20 05:59:45;;;;;;;;;;;;;;;;;;5091805;28;20355;-45
2023/09/20 06:02:11;;;;;;;;;;;;;;;;;;5091210;28;19945;-46
2023/09/20 06:04:37;;;;;;;;;;;;;;;;;;5090769;28;19953;-45
2023/09/20 06:07:04;;;;;;;;;;;;;;;;;;5091528;28;20374;-45
2023/09/20 06:09:30;;;;;;;;;;;;;;;;;;5091873;28;19919;-47
2023/09/20 06:11:56;;;;;;;;;;;;;;;;;;5091333;28;19908;-48
2023/09/20 06:14:22;;;;;;;;;;;;;;;;;;5091282;28;19919;-48
2023/09/20 06:16:48;;;;;;;;;;;;;;;;;;5091087;28;19920;-45
2023/09/20 06:19:17;;;;;;;;;;;;;;;;;;5091293;28;19999;-45
2023/09/20 06:21:43;;;;;;;;;;;;;;;;;;5091459;28;19916;-45
2023/09/20 06:24:10;;;;;;;;;;;;;;;;;;5091259;28;19912;-45
2023/09/20 06:26:37;;;;;;;;;;;;;;;;;;5093069;28;19970;-47
2023/09/20 06:29:03;;;;;;;;;;;;;;;;;;5095231;28;20625;-48
2023/09/20 06:31:29;;;;;;;;;;;;;;;;;;5111483;28;19908;-45
2023/09/20 06:33:54;;;;;;;;;;;;;;;;;;5111389;28;19953;-44
2023/09/20 06:36:20;;;;;;;;;;;;;;;;;;5111164;28;19965;-46
2023/09/20 06:38:46;;;;;;;;;;;;;;;;;;5111681;28;20276;-46
2023/09/20 06:41:13;;;;;;;;;;;;;;;;;;5100922;28;20002;-46
2023/09/20 06:43:39;;;;;;;;;;;;;;;;;;5108650;28;19934;-46
2023/09/20 06:46:05;;;;;;;;;;;;;;;;;;5108197;28;19911;-47
2023/09/20 06:48:31;;;;;;;;;;;;;;;;;;5110376;28;19955;-45
2023/09/20 06:50:57;;;;;;;;;;;;;;;;;;5109902;28;19908;-45
2023/09/20 06:53:23;;;;;;;;;;;;;;;;;;5110252;28;19912;-46
2023/09/20 06:55:49;;;;;;;;;;;;;;;;;;5110050;28;19908;-44
2023/09/20 06:58:15;;;;;;;;;;;;;;;;;;5109946;28;20263;-45
2023/09/20 07:00:41;;;;;;;;;;;;;;;;;;5100044;28;19919;-47
2023/09/20 07:03:07;;;;;;;;;;;;;;;;;;5096579;28;19935;-45
2023/09/20 07:05:33;;;;;;;;;;;;;;;;;;5110084;28;19908;-47
2023/09/20 07:07:59;;;;;;;;;;;;;;;;;;5110027;28;19986;-47
2023/09/20 07:10:25;;;;;;;;;;;;;;;;;;5109939;28;19912;-45
2023/09/20 07:12:54;;;;;;;;;;;;;;;;;;5109862;28;19914;-48
2023/09/20 07:15:20;;;;;;;;;;;;;;;;;;5109376;28;20003;-45
2023/09/20 07:17:46;;;;;;;;;;;;;;;;;;5109815;28;20003;-45
2023/09/20 07:20:17;;;;;;;;;;;;;;;;;;5109691;28;19915;-45
2023/09/20 07:22:43;;;;;;;;;;;;;;;;;;5107918;28;19956;-45
2023/09/20 07:25:16;;;;;;;;;;;;;;;;;;5109603;28;20261;-45
2023/09/20 07:27:42;;;;;;;;;;;;;;;;;;5108749;28;20405;-46
2023/09/20 07:30:14;;;;;;;;;;;;;;;;;;5109045;28;19911;-45
2023/09/20 07:32:40;;;;;;;;;;;;;;;;;;5106096;28;19938;-46
2023/09/20 07:35:19;;;;;;;;;;;;;;;;;;5107968;28;19912;-45
2023/09/20 07:37:47;;;;;;;;;;;;;;;;;;5104799;28;19922;-44
2023/09/20 07:40:13;;;;;;;;;;;;;;;;;;5090080;28;19916;-44
2023/09/20 07:42:39;;;;;;;;;;;;;;;;;;5108405;28;19919;-47
2023/09/20 07:45:13;;;;;;;;;;;;;;;;;;5107701;28;19912;-46
2023/09/20 07:47:39;;;;;;;;;;;;;;;;;;5104821;28;19915;-44
2023/09/20 07:50:06;;;;;;;;;;;;;;;;;;5108944;28;20002;-45
2023/09/20 07:52:35;;;;;;;;;;;;;;;;;;5109841;28;20401;-44
2023/09/20 07:55:04;;;;;;;;;;;;;;;;;;5093073;28;19916;-45
2023/09/20 07:57:30;;;;;;;;;;;;;;;;;;5090692;28;19916;-45
2023/09/20 07:59:59;;;;;;;;;;;;;;;;;;5088996;28;19931;-45
2023/09/20 08:02:25;;;;;;;;;;;;;;;;;;5088998;28;19920;-46
2023/09/20 08:04:51;;;;;;;;;;;;;;;;;;5097023;28;19935;-45
2023/09/20 08:07:17;;;;;;;;;;;;;;;;;;5109375;28;19915;-45
2023/09/20 08:09:43;;;;;;;;;;;;;;;;;;5109286;28;19912;-46
2023/09/20 08:12:11;;;;;;;;;;;;;;;;;;5108843;28;19957;-44
2023/09/20 08:14:37;;;;;;;;;;;;;;;;;;5109456;28;19908;-47
2023/09/20 08:19:49;;;;;;;;;;;;;;;;;;5109112;28;19929;-45
2023/09/20 08:22:17;;;;;;;;;;;;;;;;;;5109288;28;19908;-48
2023/09/20 09:00:24;;;;;;;;;;;;;;;;;;5112263;28;20401;-46
2023/09/20 09:02:50;;;;;;;;;;;;;;;;;;5094974;28;20382;-44
2023/09/20 09:05:16;;;;;;;;;;;;;;;;;;5111878;28;19915;-46
2023/09/20 09:07:42;;;;;;;;;;;;;;;;;;5111987;28;19908;-45
2023/09/20 09:10:09;;;;;;;;;;;;;;;;;;5111999;28;19907;-44
2023/09/20 09:12:34;;;;;;;;;;;;;;;;;;5111847;28;19915;-45
2023/09/20 09:15:00;;;;;;;;;;;;;;;;;;5096714;28;19916;-45
2023/09/20 09:17:26;;;;;;;;;;;;;;;;;;5103574;28;19915;-47
2023/09/20 09:19:52;;;;;;;;;;;;;;;;;;5091345;28;20007;-46
2023/09/20 09:22:19;;;;;;;;;;;;;;;;;;5094082;28;19935;-45
2023/09/20 09:24:45;;;;;;;;;;;;;;;;;;5091129;28;19919;-45
2023/09/20 09:27:11;;;;;;;;;;;;;;;;;;5091017;28;19916;-46
2023/09/20 09:29:36;;;;;;;;;;;;;;;;;;5091123;28;19912;-45
2023/09/20 09:32:02;;;;;;;;;;;;;;;;;;5091358;28;19912;-45
2023/09/20 09:34:28;;;;;;;;;;;;;;;;;;5091065;28;19908;-46
2023/09/20 09:36:54;;;;;;;;;;;;;;;;;;5090698;28;19959;-45
2023/09/20 09:39:20;;;;;;;;;;;;;;;;;;5091106;28;20452;-47
2023/09/20 09:41:46;;;;;;;;;;;;;;;;;;5110871;28;19986;-46
2023/09/20 09:44:12;;;;;;;;;;;;;;;;;;5111179;28;20297;-45
2023/09/20 09:46:41;;;;;;;;;;;;;;;;;;5111273;28;19915;-46
2023/09/20 09:49:10;;;;;;;;;;;;;;;;;;5111296;28;19908;-46
2023/09/20 09:51:36;;;;;;;;;;;;;;;;;;5102990;28;19919;-46
2023/09/20 09:54:02;;;;;;;;;;;;;;;;;;5091623;28;19908;-46
2023/09/20 09:56:28;;;;;;;;;;;;;;;;;;5090508;28;20369;-49
2023/09/20 09:58:54;;;;;;;;;;;;;;;;;;5090565;28;19912;-47
2023/09/20 10:01:20;;;;;;;;;;;;;;;;;;5099290;28;19961;-46
2023/09/20 10:03:46;;;;;;;;;;;;;;;;;;5112176;28;19907;-47
2023/09/20 10:06:12;;;;;;;;;;;;;;;;;;5112216;28;19980;-49
2023/09/20 10:08:38;;;;;;;;;;;;;;;;;;5111505;28;19950;-49
2023/09/20 10:11:05;;;;;;;;;;;;;;;;;;5103698;28;20329;-45
2023/09/20 10:13:31;;;;;;;;;;;;;;;;;;5100341;28;19908;-50
2023/09/20 10:15:57;;;;;;;;;;;;;;;;;;5092471;28;20310;-46
2023/09/20 10:18:24;;;;;;;;;;;;;;;;;;5104543;28;20400;-47
2023/09/20 10:20:51;;;;;;;;;;;;;;;;;;5092851;28;19916;-46
2023/09/20 10:23:17;;;;;;;;;;;;;;;;;;5108990;28;19939;-46
2023/09/20 10:25:43;;;;;;;;;;;;;;;;;;5110335;28;19947;-46
2023/09/20 10:28:09;;;;;;;;;;;;;;;;;;5110487;28;20429;-46
2023/09/20 10:30:34;;;;;;;;;;;;;;;;;;5110610;28;19947;-48
2023/09/20 10:33:03;;;;;;;;;;;;;;;;;;5110683;28;19951;-49
2023/09/20 10:35:30;;;;;;;;;;;;;;;;;;5110458;28;19907;-46
2023/09/20 10:37:56;;;;;;;;;;;;;;;;;;5110089;28;19972;-50
2023/09/20 10:40:21;;;;;;;;;;;;;;;;;;5110077;28;19908;-46
2023/09/20 10:42:47;;;;;;;;;;;;;;;;;;5110190;28;19916;-49
2023/09/20 10:45:13;;;;;;;;;;;;;;;;;;5110092;28;19959;-46
2023/09/20 10:47:39;;;;;;;;;;;;;;;;;;5110124;28;19915;-46
2023/09/20 10:50:11;;;;;;;;;;;;;;;;;;5109659;28;20391;-47
2023/09/20 10:52:37;;;;;;;;;;;;;;;;;;5110081;28;19919;-48
2023/09/20 10:55:05;;;;;;;;;;;;;;;;;;5110320;28;19907;-50
2023/09/20 10:57:31;;;;;;;;;;;;;;;;;;5110287;28;19915;-47
2023/09/20 10:59:57;;;;;;;;;;;;;;;;;;5110146;28;20294;-50
2023/09/20 11:02:23;;;;;;;;;;;;;;;;;;5109908;28;19908;-49
2023/09/20 11:04:49;;;;;;;;;;;;;;;;;;5109760;28;19915;-47
2023/09/20 11:07:15;;;;;;;;;;;;;;;;;;5109596;28;19907;-49
2023/09/20 11:09:42;;;;;;;;;;;;;;;;;;5109777;28;19908;-48
2023/09/20 11:12:08;;;;;;;;;;;;;;;;;;5110059;28;19954;-50
2023/09/20 11:14:34;;;;;;;;;;;;;;;;;;5109682;28;19947;-47
2023/09/20 11:17:02;;;;;;;;;;;;;;;;;;5109813;28;19919;-49
2023/09/20 11:19:28;;;;;;;;;;;;;;;;;;5109236;28;20301;-46
2023/09/20 11:21:54;;;;;;;;;;;;;;;;;;5109518;28;19918;-49
2023/09/20 11:24:20;;;;;;;;;;;;;;;;;;5109288;28;20014;-50
2023/09/20 11:26:48;;;;;;;;;;;;;;;;;;5109264;28;19955;-51
2023/09/20 11:29:16;;;;;;;;;;;;;;;;;;5109341;28;20278;-47
2023/09/20 11:31:43;;;;;;;;;;;;;;;;;;5109595;28;19922;-46
2023/09/20 11:34:10;;;;;;;;;;;;;;;;;;5109045;28;19943;-48
2023/09/20 11:36:39;;;;;;;;;;;;;;;;;;5109161;28;20386;-47
2023/09/20 11:39:05;;;;;;;;;;;;;;;;;;5109305;28;19912;-46
2023/09/20 11:41:32;;;;;;;;;;;;;;;;;;5109923;28;20328;-47
2023/09/20 11:43:58;;;;;;;;;;;;;;;;;;5109604;28;19915;-47
2023/09/20 11:46:26;;;;;;;;;;;;;;;;;;5109107;28;19911;-49
2023/09/20 11:48:52;;;;;;;;;;;;;;;;;;5109236;28;19912;-46
2023/09/20 11:51:18;;;;;;;;;;;;;;;;;;5109512;28;19961;-47
2023/09/20 11:53:44;;;;;;;;;;;;;;;;;;5109493;28;19908;-49
2023/09/20 11:56:10;;;;;;;;;;;;;;;;;;5109143;28;19912;-49
2023/09/20 11:58:37;;;;;;;;;;;;;;;;;;5109082;28;20313;-45
2023/09/20 12:01:05;;;;;;;;;;;;;;;;;;5109586;28;20314;-47
2023/09/20 12:03:30;;;;;;;;;;;;;;;;;;5113278;28;20428;-47
2023/09/20 12:05:56;;;;;;;;;;;;;;;;;;5094821;28;19907;-46
2023/09/20 12:08:22;;;;;;;;;;;;;;;;;;5113208;28;19981;-47
2023/09/20 12:10:48;;;;;;;;;;;;;;;;;;5113173;28;19908;-47
2023/09/20 12:13:14;;;;;;;;;;;;;;;;;;5112977;28;20262;-48
2023/09/20 12:15:43;;;;;;;;;;;;;;;;;;5113013;28;19912;-48
2023/09/20 12:18:13;;;;;;;;;;;;;;;;;;5112618;28;20119;-48
2023/09/20 12:20:39;;;;;;;;;;;;;;;;;;5112919;28;19908;-46
2023/09/20 12:23:06;;;;;;;;;;;;;;;;;;5094607;28;19914;-48
2023/09/20 12:25:31;;;;;;;;;;;;;;;;;;5112782;28;19948;-47
2023/09/20 12:27:57;;;;;;;;;;;;;;;;;;5112842;28;20409;-46
2023/09/20 12:30:27;;;;;;;;;;;;;;;;;;5112559;28;19908;-48
2023/09/20 12:32:53;;;;;;;;;;;;;;;;;;5112726;28;19904;-47
2023/09/20 12:35:19;;;;;;;;;;;;;;;;;;5112227;28;19915;-47
2023/09/20 12:37:45;;;;;;;;;;;;;;;;;;5112421;28;19912;-46
2023/09/20 12:40:11;;;;;;;;;;;;;;;;;;5112441;28;19980;-47
2023/09/20 12:42:37;;;;;;;;;;;;;;;;;;5112543;28;19912;-47
2023/09/20 12:45:07;;;;;;;;;;;;;;;;;;5112358;28;19933;-47
2023/09/20 12:47:33;;;;;;;;;;;;;;;;;;5112771;28;19907;-47
2023/09/20 12:50:00;;;;;;;;;;;;;;;;;;5112534;28;19915;-47
2023/09/20 12:52:26;;;;;;;;;;;;;;;;;;5110628;28;20040;-48
2023/09/20 12:54:52;;;;;;;;;;;;;;;;;;5111806;28;19998;-47
2023/09/20 12:57:18;;;;;;;;;;;;;;;;;;5112034;28;20281;-46
2023/09/20 12:59:44;;;;;;;;;;;;;;;;;;5093474;28;19934;-47
2023/09/20 13:02:10;;;;;;;;;;;;;;;;;;5112084;28;20002;-50
2023/09/20 13:04:36;;;;;;;;;;;;;;;;;;5112155;28;19998;-47
2023/09/20 13:07:02;;;;;;;;;;;;;;;;;;5112768;28;19953;-47
2023/09/20 13:09:28;;;;;;;;;;;;;;;;;;5111932;28;20297;-47
2023/09/20 13:11:54;;;;;;;;;;;;;;;;;;5111626;28;19961;-48
2023/09/20 13:14:21;;;;;;;;;;;;;;;;;;5111748;28;19908;-49
2023/09/20 13:16:49;;;;;;;;;;;;;;;;;;5111791;28;19918;-51
2023/09/20 13:19:15;;;;;;;;;;;;;;;;;;5111838;28;20298;-51
2023/09/20 13:21:41;;;;;;;;;;;;;;;;;;5111690;28;19912;-49
2023/09/20 13:24:11;;;;;;;;;;;;;;;;;;5111809;28;20373;-50
2023/09/20 13:26:38;;;;;;;;;;;;;;;;;;5111761;28;19990;-50
2023/09/20 13:29:04;;;;;;;;;;;;;;;;;;5111587;28;19915;-47
2023/09/20 13:31:30;;;;;;;;;;;;;;;;;;5112125;28;19912;-50
2023/09/20 13:33:56;;;;;;;;;;;;;;;;;;5111663;28;20401;-49
2023/09/20 13:36:22;;;;;;;;;;;;;;;;;;5111371;28;20286;-49
2023/09/20 13:38:47;;;;;;;;;;;;;;;;;;5111281;28;19912;-50
2023/09/20 13:41:13;;;;;;;;;;;;;;;;;;5111193;28;19908;-48
2023/09/20 13:43:42;;;;;;;;;;;;;;;;;;5111435;28;19943;-51
2023/09/20 13:46:08;;;;;;;;;;;;;;;;;;5111307;28;19907;-50
2023/09/20 13:48:34;;;;;;;;;;;;;;;;;;5111709;28;19907;-49
2023/09/20 13:51:01;;;;;;;;;;;;;;;;;;5111795;28;19908;-50
2023/09/20 13:53:27;;;;;;;;;;;;;;;;;;5111265;28;20006;-50
2023/09/20 13:55:53;;;;;;;;;;;;;;;;;;5110880;28;19908;-51
2023/09/20 13:58:19;;;;;;;;;;;;;;;;;;5111051;28;19965;-50
2023/09/20 14:00:45;;;;;;;;;;;;;;;;;;5111155;28;19950;-51
2023/09/20 14:03:12;;;;;;;;;;;;;;;;;;5111179;28;19930;-49
2023/09/20 14:05:38;;;;;;;;;;;;;;;;;;5110787;28;19907;-50
2023/09/20 14:08:07;;;;;;;;;;;;;;;;;;5110882;28;19904;-50
2023/09/20 14:10:34;;;;;;;;;;;;;;;;;;5097061;28;19911;-51
2023/09/20 14:12:59;;;;;;;;;;;;;;;;;;5109277;28;20394;-49
2023/09/20 14:15:25;;;;;;;;;;;;;;;;;;5108551;28;19954;-47
2023/09/20 14:17:51;;;;;;;;;;;;;;;;;;5110847;28;20010;-47
2023/09/20 14:20:23;;;;;;;;;;;;;;;;;;5097159;28;19919;-50
2023/09/20 14:22:52;;;;;;;;;;;;;;;;;;5090733;28;21501;-49
2023/09/20 14:25:18;;;;;;;;;;;;;;;;;;5089905;28;19916;-48
2023/09/20 14:27:44;;;;;;;;;;;;;;;;;;5109273;28;19914;-48
2023/09/20 14:30:10;;;;;;;;;;;;;;;;;;5090645;28;20282;-48
2023/09/20 14:32:36;;;;;;;;;;;;;;;;;;5109627;28;19914;-48
2023/09/20 14:35:03;;;;;;;;;;;;;;;;;;5107843;28;19912;-49
2023/09/20 14:37:29;;;;;;;;;;;;;;;;;;5099759;28;19916;-42
2023/09/20 14:39:56;;;;;;;;;;;;;;;;;;5090789;28;20417;-42
2023/09/20 14:42:22;;;;;;;;;;;;;;;;;;5108817;28;19915;-42
2023/09/20 14:44:48;;;;;;;;;;;;;;;;;;5099524;28;19912;-42
2023/09/20 14:47:15;;;;;;;;;;;;;;;;;;5088307;28;20335;-43
2023/09/20 14:49:41;;;;;;;;;;;;;;;;;;5087765;28;19912;-42
2023/09/20 14:52:08;;;;;;;;;;;;;;;;;;5088409;28;19953;-42
2023/09/20 14:54:37;;;;;;;;;;;;;;;;;;5091570;28;19919;-42
2023/09/20 14:57:02;;;;;;;;;;;;;;;;;;5096746;28;19920;-42
2023/09/20 14:59:29;;;;;;;;;;;;;;;;;;5107742;28;19908;-42
2023/09/20 15:01:55;;;;;;;;;;;;;;;;;;5103651;28;19916;-42
2023/09/20 15:04:21;;;;;;;;;;;;;;;;;;5108580;28;19908;-42
2023/09/20 15:06:47;;;;;;;;;;;;;;;;;;5108484;28;20396;-44
2023/09/20 15:09:15;;;;;;;;;;;;;;;;;;5100111;28;19923;-42
2023/09/20 15:11:41;;;;;;;;;;;;;;;;;;5076823;28;19915;-42
2023/09/20 15:14:07;;;;;;;;;;;;;;;;;;5088095;28;19961;-42
2023/09/20 15:16:34;;;;;;;;;;;;;;;;;;5086185;28;20374;-42
2023/09/20 15:19:01;;;;;;;;;;;;;;;;;;5090453;28;19916;-42
2023/09/20 15:21:27;;;;;;;;;;;;;;;;;;5088410;28;19908;-42
2023/09/20 15:23:53;;;;;;;;;;;;;;;;;;5082646;28;19919;-42
2023/09/20 15:26:21;;;;;;;;;;;;;;;;;;5085849;28;20010;-42
2023/09/20 15:28:49;;;;;;;;;;;;;;;;;;5068397;28;20112;-42
2023/09/20 15:31:15;;;;;;;;;;;;;;;;;;5087178;28;19912;-42
2023/09/20 15:33:41;;;;;;;;;;;;;;;;;;5086482;28;19916;-42
2023/09/20 15:36:07;;;;;;;;;;;;;;;;;;5088725;28;19923;-42
2023/09/20 15:38:34;;;;;;;;;;;;;;;;;;5092144;28;20021;-42
2023/09/20 15:41:00;;;;;;;;;;;;;;;;;;5092023;28;20344;-41
2023/09/20 15:43:26;;;;;;;;;;;;;;;;;;5104419;28;19919;-42
2023/09/20 15:45:52;;;;;;;;;;;;;;;;;;5107498;28;20374;-43
2023/09/20 15:48:18;;;;;;;;;;;;;;;;;;5110850;28;20002;-42
2023/09/20 15:50:43;;;;;;;;;;;;;;;;;;5110678;28;19947;-42
2023/09/20 15:53:14;;;;;;;;;;;;;;;;;;5111175;28;20272;-42
2023/09/20 15:55:41;;;;;;;;;;;;;;;;;;5077203;28;20245;-42
2023/09/20 15:58:07;;;;;;;;;;;;;;;;;;5090666;28;20436;-42
2023/09/20 16:00:33;;;;;;;;;;;;;;;;;;5090265;28;19912;-42
2023/09/20 16:02:59;;;;;;;;;;;;;;;;;;5091068;28;19912;-42
2023/09/20 16:05:25;;;;;;;;;;;;;;;;;;5108997;28;19951;-43
2023/09/20 16:07:50;;;;;;;;;;;;;;;;;;5110012;28;20332;-42
2023/09/20 16:10:18;;;;;;;;;;;;;;;;;;5108653;28;20337;-46
2023/09/20 16:12:44;;;;;;;;;;;;;;;;;;5091916;28;20373;-42
2023/09/20 16:15:09;;;;;;;;;;;;;;;;;;5110897;28;19907;-43
2023/09/20 16:17:37;;;;;;;;;;;;;;;;;;5099234;28;19916;-42
2023/09/20 16:20:03;;;;;;;;;;;;;;;;;;5094069;28;19923;-42
2023/09/20 16:22:29;;;;;;;;;;;;;;;;;;5105104;28;20369;-42
2023/09/20 16:24:55;;;;;;;;;;;;;;;;;;5108334;28;20405;-42
2023/09/20 16:27:22;;;;;;;;;;;;;;;;;;5089327;28;19915;-42
2023/09/20 16:29:52;;;;;;;;;;;;;;;;;;5100391;28;19914;-42
2023/09/20 16:32:21;;;;;;;;;;;;;;;;;;5091222;28;20384;-43
2023/09/20 16:34:47;;;;;;;;;;;;;;;;;;5110044;28;19915;-43
2023/09/20 16:37:13;;;;;;;;;;;;;;;;;;5097827;28;19928;-42
2023/09/20 16:39:39;;;;;;;;;;;;;;;;;;5090220;28;20380;-43
2023/09/20 16:42:05;;;;;;;;;;;;;;;;;;5089091;28;19985;-42
2023/09/20 16:44:31;;;;;;;;;;;;;;;;;;5089382;28;20034;-43
2023/09/20 16:46:57;;;;;;;;;;;;;;;;;;5088241;28;20011;-43
2023/09/20 16:49:24;;;;;;;;;;;;;;;;;;5089641;28;19935;-42
2023/09/20 16:51:54;;;;;;;;;;;;;;;;;;5089127;28;20393;-42
2023/09/20 16:54:20;;;;;;;;;;;;;;;;;;5070757;28;19908;-42
2023/09/20 16:56:45;;;;;;;;;;;;;;;;;;5088803;28;19908;-42
2023/09/20 16:59:12;;;;;;;;;;;;;;;;;;5089531;28;19912;-42
2023/09/20 17:01:38;;;;;;;;;;;;;;;;;;5089309;28;20314;-43
2023/09/20 17:04:04;;;;;;;;;;;;;;;;;;5089858;28;19916;-43
2023/09/20 17:06:30;;;;;;;;;;;;;;;;;;5089920;28;19955;-42
2023/09/20 17:08:57;;;;;;;;;;;;;;;;;;5104582;28;20435;-42
2023/09/20 17:11:23;;;;;;;;;;;;;;;;;;5103131;28;19915;-41
2023/09/20 17:13:51;;;;;;;;;;;;;;;;;;5098979;28;19908;-43
2023/09/20 17:16:17;;;;;;;;;;;;;;;;;;5089115;28;20424;-42
2023/09/20 17:18:43;;;;;;;;;;;;;;;;;;5108891;28;19919;-42
2023/09/20 17:21:09;;;;;;;;;;;;;;;;;;5108490;28;19937;-42
2023/09/20 17:23:35;;;;;;;;;;;;;;;;;;5109392;28;19986;-43
2023/09/20 17:26:01;;;;;;;;;;;;;;;;;;5090367;28;20414;-42
2023/09/20 17:28:27;;;;;;;;;;;;;;;;;;5107762;28;19908;-42
2023/09/20 17:30:53;;;;;;;;;;;;;;;;;;5088035;28;19908;-43
2023/09/20 17:33:19;;;;;;;;;;;;;;;;;;5083871;28;19915;-43
2023/09/20 17:35:45;;;;;;;;;;;;;;;;;;5088426;28;19962;-43
2023/09/20 17:38:11;;;;;;;;;;;;;;;;;;5087896;28;20417;-41
2023/09/20 17:40:37;;;;;;;;;;;;;;;;;;5088057;28;19947;-43
2023/09/20 17:43:02;;;;;;;;;;;;;;;;;;5087839;28;19912;-41
2023/09/20 17:45:28;;;;;;;;;;;;;;;;;;5088180;28;19908;-42
2023/09/20 17:47:54;;;;;;;;;;;;;;;;;;5088527;28;20147;-42
2023/09/20 17:50:20;;;;;;;;;;;;;;;;;;5089299;28;19919;-43
2023/09/20 17:52:46;;;;;;;;;;;;;;;;;;5087829;28;19919;-42
2023/09/20 17:55:14;;;;;;;;;;;;;;;;;;5087461;28;19912;-42
2023/09/20 17:57:40;;;;;;;;;;;;;;;;;;5087700;28;19916;-42
2023/09/20 18:00:11;;;;;;;;;;;;;;;;;;5087779;28;20401;-42
2023/09/20 18:02:37;;;;;;;;;;;;;;;;;;5102578;28;19916;-50
2023/09/20 18:05:03;;;;;;;;;;;;;;;;;;5106316;28;19916;-48
2023/09/20 18:07:29;;;;;;;;;;;;;;;;;;5087808;28;20003;-47
2023/09/20 18:09:55;;;;;;;;;;;;;;;;;;5087724;28;19935;-49
2023/09/20 18:12:21;;;;;;;;;;;;;;;;;;5087723;28;20426;-49
2023/09/20 18:14:48;;;;;;;;;;;;;;;;;;5087751;28;19934;-49
2023/09/20 18:17:15;;;;;;;;;;;;;;;;;;5068701;28;20582;-49
2023/09/20 18:19:41;;;;;;;;;;;;;;;;;;5086835;28;19908;-49
2023/09/20 18:22:10;;;;;;;;;;;;;;;;;;5086640;28;20173;-47
2023/09/20 18:24:39;;;;;;;;;;;;;;;;;;5086677;28;19919;-48
2023/09/20 18:27:05;;;;;;;;;;;;;;;;;;5086241;28;20385;-47
2023/09/20 18:29:31;;;;;;;;;;;;;;;;;;5086518;28;19908;-48
2023/09/20 18:31:57;;;;;;;;;;;;;;;;;;5101765;28;19916;-47
2023/09/20 18:34:28;;;;;;;;;;;;;;;;;;5089223;28;20294;-47
2023/09/20 18:36:54;;;;;;;;;;;;;;;;;;5107396;28;19908;-50
2023/09/20 18:39:19;;;;;;;;;;;;;;;;;;5106331;28;19980;-49
2023/09/20 18:41:45;;;;;;;;;;;;;;;;;;5106801;28;20472;-49
2023/09/20 18:44:11;;;;;;;;;;;;;;;;;;5096400;28;19938;-50
2023/09/20 18:46:37;;;;;;;;;;;;;;;;;;5092789;28;20468;-48
2023/09/20 18:49:04;;;;;;;;;;;;;;;;;;5093039;28;19920;-47
2023/09/20 18:51:29;;;;;;;;;;;;;;;;;;5089078;28;19911;-49
2023/09/20 18:53:56;;;;;;;;;;;;;;;;;;5101112;28;19935;-48
2023/09/20 18:56:22;;;;;;;;;;;;;;;;;;5102918;28;19918;-47
2023/09/20 18:58:47;;;;;;;;;;;;;;;;;;5092048;28;20378;-50
2023/09/20 19:01:16;;;;;;;;;;;;;;;;;;5071439;28;19908;-48
2023/09/20 19:03:45;;;;;;;;;;;;;;;;;;5107994;28;19908;-48
2023/09/20 19:06:11;;;;;;;;;;;;;;;;;;5100035;28;19908;-48
2023/09/20 19:08:37;;;;;;;;;;;;;;;;;;5094539;28;19912;-50
2023/09/20 19:11:03;;;;;;;;;;;;;;;;;;5098143;28;19957;-49
2023/09/20 19:13:29;;;;;;;;;;;;;;;;;;5098006;28;19978;-50
2023/09/20 19:15:55;;;;;;;;;;;;;;;;;;5085183;28;19966;-49
2023/09/20 19:18:22;;;;;;;;;;;;;;;;;;5087744;28;19916;-51
2023/09/20 19:20:49;;;;;;;;;;;;;;;;;;5107622;28;19908;-50
2023/09/20 19:23:16;;;;;;;;;;;;;;;;;;5107573;28;20030;-47
2023/09/20 19:25:42;;;;;;;;;;;;;;;;;;5104101;28;19916;-51
2023/09/20 19:28:07;;;;;;;;;;;;;;;;;;5102700;28;19965;-48
2023/09/20 19:30:33;;;;;;;;;;;;;;;;;;5103563;28;19912;-49
2023/09/20 19:32:59;;;;;;;;;;;;;;;;;;5086688;28;19916;-50
2023/09/20 19:35:26;;;;;;;;;;;;;;;;;;5094552;28;19937;-47
2023/09/20 19:37:52;;;;;;;;;;;;;;;;;;5090959;28;20283;-42
2023/09/20 19:40:22;;;;;;;;;;;;;;;;;;5092230;28;19974;-42
2023/09/20 19:42:50;;;;;;;;;;;;;;;;;;5106158;28;19908;-42
2023/09/20 19:45:16;;;;;;;;;;;;;;;;;;5105874;28;19912;-42
2023/09/20 19:47:43;;;;;;;;;;;;;;;;;;5106020;28;19908;-42
2023/09/20 19:50:09;;;;;;;;;;;;;;;;;;5075106;28;19913;-43
2023/09/20 19:52:35;;;;;;;;;;;;;;;;;;5102624;28;19959;-41
2023/09/20 19:55:06;;;;;;;;;;;;;;;;;;5103543;28;19919;-41
2023/09/20 19:57:32;;;;;;;;;;;;;;;;;;5100635;28;20105;-42
2023/09/20 19:59:58;;;;;;;;;;;;;;;;;;5086082;28;20492;-43
2023/09/20 20:02:26;;;;;;;;;;;;;;;;;;5097523;28;20326;-42
2023/09/20 20:04:53;;;;;;;;;;;;;;;;;;5105906;28;20305;-42
2023/09/20 20:07:19;;;;;;;;;;;;;;;;;;5084994;28;19908;-42
2023/09/20 20:09:45;;;;;;;;;;;;;;;;;;5104895;28;19908;-41
2023/09/20 20:12:11;;;;;;;;;;;;;;;;;;5083779;28;19920;-42
2023/09/20 20:14:37;;;;;;;;;;;;;;;;;;5077521;28;20015;-42
2023/09/20 20:17:09;;;;;;;;;;;;;;;;;;5084754;28;19916;-43
2023/09/20 20:19:37;;;;;;;;;;;;;;;;;;5101644;28;19916;-43
2023/09/20 20:22:03;;;;;;;;;;;;;;;;;;5087439;28;19915;-41
2023/09/20 20:24:30;;;;;;;;;;;;;;;;;;5109345;28;19907;-41
2023/09/20 20:26:56;;;;;;;;;;;;;;;;;;5109628;28;20338;-42
2023/09/20 20:29:22;;;;;;;;;;;;;;;;;;5094841;28;19912;-41
2023/09/20 20:31:48;;;;;;;;;;;;;;;;;;5098542;28;20002;-42
2023/09/20 20:34:13;;;;;;;;;;;;;;;;;;5090739;28;19912;-42
2023/09/20 20:36:40;;;;;;;;;;;;;;;;;;5109215;28;19904;-42
2023/09/20 20:39:10;;;;;;;;;;;;;;;;;;5108008;28;19916;-42
2023/09/20 20:41:36;;;;;;;;;;;;;;;;;;5092671;28;19912;-43
2023/09/20 20:44:03;;;;;;;;;;;;;;;;;;5108676;28;20374;-43
2023/09/20 20:46:29;;;;;;;;;;;;;;;;;;5108828;28;20076;-42
2023/09/20 20:48:57;;;;;;;;;;;;;;;;;;5093295;28;20434;-42
2023/09/20 20:51:25;;;;;;;;;;;;;;;;;;5089615;28;20339;-42
2023/09/20 20:53:52;;;;;;;;;;;;;;;;;;5092051;28;19912;-55
2023/09/20 20:56:18;;;;;;;;;;;;;;;;;;5108222;28;19912;-48
2023/09/20 20:58:44;;;;;;;;;;;;;;;;;;5107607;28;19915;-48
2023/09/20 21:01:10;;;;;;;;;;;;;;;;;;5090109;28;20352;-49
2023/09/20 21:03:36;;;;;;;;;;;;;;;;;;5108412;28;19955;-49
2023/09/20 21:06:04;;;;;;;;;;;;;;;;;;5097608;28;20479;-49
2023/09/20 21:08:34;;;;;;;;;;;;;;;;;;5089413;28;19916;-51
2023/09/20 21:11:00;;;;;;;;;;;;;;;;;;5087405;28;19912;-48
2023/09/20 21:13:26;;;;;;;;;;;;;;;;;;5089583;28;19934;-51
2023/09/20 21:15:51;;;;;;;;;;;;;;;;;;5088637;28;19908;-49
2023/09/20 21:18:17;;;;;;;;;;;;;;;;;;5089529;28;20475;-51
2023/09/20 21:20:50;;;;;;;;;;;;;;;;;;5109154;28;19907;-48
2023/09/20 21:23:16;;;;;;;;;;;;;;;;;;5108912;28;19916;-47
2023/09/20 21:25:42;;;;;;;;;;;;;;;;;;5103304;28;20441;-50
2023/09/20 21:28:08;;;;;;;;;;;;;;;;;;5094741;28;19958;-50
2023/09/20 21:30:37;;;;;;;;;;;;;;;;;;5108075;28;20370;-50
2023/09/20 21:33:04;;;;;;;;;;;;;;;;;;5108343;28;20283;-51
2023/09/20 21:35:30;;;;;;;;;;;;;;;;;;5109030;28;20345;-49
2023/09/20 21:37:56;;;;;;;;;;;;;;;;;;5099905;28;19961;-49
2023/09/20 21:40:22;;;;;;;;;;;;;;;;;;5087870;28;19912;-51
2023/09/20 21:42:48;;;;;;;;;;;;;;;;;;5088188;28;20375;-49
2023/09/20 21:45:15;;;;;;;;;;;;;;;;;;5088391;28;19909;-48
2023/09/20 21:47:41;;;;;;;;;;;;;;;;;;5088705;28;20305;-48
2023/09/20 21:50:09;;;;;;;;;;;;;;;;;;5107955;28;19919;-50
2023/09/20 21:52:35;;;;;;;;;;;;;;;;;;5108791;28;20297;-50
2023/09/20 21:55:01;;;;;;;;;;;;;;;;;;5088793;28;19923;-48
2023/09/20 21:57:27;;;;;;;;;;;;;;;;;;5104039;28;19916;-49
2023/09/20 21:59:53;;;;;;;;;;;;;;;;;;5085801;28;19935;-48
2023/09/20 22:02:19;;;;;;;;;;;;;;;;;;5096341;28;19954;-49
2023/09/20 22:04:45;;;;;;;;;;;;;;;;;;5087918;28;19916;-49
2023/09/20 22:07:13;;;;;;;;;;;;;;;;;;5087824;28;19939;-49
2023/09/20 22:09:39;;;;;;;;;;;;;;;;;;5083579;28;20471;-49
2023/09/20 22:12:05;;;;;;;;;;;;;;;;;;5086960;28;19947;-50
2023/09/20 22:14:31;;;;;;;;;;;;;;;;;;5087705;28;19908;-48
2023/09/20 22:16:59;;;;;;;;;;;;;;;;;;5093467;28;19916;-49
2023/09/20 22:19:25;;;;;;;;;;;;;;;;;;5110003;28;19907;-51
2023/09/20 22:21:53;;;;;;;;;;;;;;;;;;5109194;28;20651;-49
2023/09/20 22:24:21;;;;;;;;;;;;;;;;;;5106938;28;20286;-50
2023/09/20 22:26:46;;;;;;;;;;;;;;;;;;5091188;28;20358;-49
2023/09/20 22:29:12;;;;;;;;;;;;;;;;;;5107343;28;19927;-51
2023/09/20 22:31:38;;;;;;;;;;;;;;;;;;5097242;28;19912;-52
2023/09/20 22:34:11;;;;;;;;;;;;;;;;;;5081445;28;20405;-50
2023/09/20 22:36:38;;;;;;;;;;;;;;;;;;5088990;28;20409;-51